NZWN/WLG METAR and TAF weather

Enter ICAO airport designator
Station Type Date Time Source
NZWN METAR 2019/08/25 13:30 UTC NOAA

NZWN 251330Z AUTO 35016KT 310V020 9999 BKN019/// 14/11 Q1004 NOSIG


Station Type Date Time Source
NZWN Decoded METAR 2019/08/25 13:30 UTC NOAA

Station name not available
Aug 25, 2019 - 09:30 AM EDT / 2019.08.25 1330 UTC
Wind: from the N (350 degrees) at 18 MPH (16 KT) (direction variable):0
Visibility: greater than 7 mile(s):0
Sky conditions: mostly cloudy
Temperature: 57 F (14 C)
Dew Point: 51 F (11 C)
Relative Humidity: 82%
Pressure (altimeter): 29.65 in. Hg (1004 hPa)
ob: NZWN 251330Z AUTO 35016KT 310V020 9999 BKN019/// 14/11 Q1004 NOSIG
cycle: 13

Station Type Date Time Source
NZWN TAF 2019/08/25 12:21 UTC NOAA

TAF NZWN 251111Z 2512/2612 35015G25KT CAVOK
FM251400 35020G35KT 9999 -SHRA FEW014 BKN025
TEMPO 2516/2519 6000 SHRA BKN014
BECMG 2604/2606 18015KT
TEMPO 2604/2612 6000 SHRA BKN012

Example: see airport list